FranceFixed distance
Luchon Aneto Trail - Lat Challenge
8–9 Jul2023·2 stages
Distance
87km
Finishers
124102 men22 women
Winning time
10:04:36h
Median pace
5.75km/h
Pace distribution
124 finishers · 4.47–8.63 km/h · mean 5.95
Every finisher ran the same 87 km course, so these paces are directly comparable.
Histogram of finisher pace. 124 finishers ranged from 4.47 to 8.63 kilometres per hour, with a mean of 5.95 and a median of 5.75. The busiest band is 5.0 to 5.5 kilometres per hour, with 35 finishers.
Results
Ranks 101–124 of 124
| Rank | Runner | Time | Pace | Cat. | Placing |
|---|---|---|---|---|---|
| 100 | Lauragais Athletisme Club | 17:01:04h | 5.11 | M55 | 83rd M · 4th M55 |
| 102 | 17:08:08h | 5.08 | M23 | 84th M · 19th M23 | |
| 102 | US Talence | 17:08:08h | 5.08 | M55 | 84th M · 5th M55 |
| 104 | Trail du Mourtis | 17:08:17h | 5.08 | M45 | 86th M · 18th M45 |
| 105 | Rrunning Castres | 17:15:50h | 5.04 | W45 | 19th F · 8th W45 |
| 106 | 17:22:52h | 5.00 | M40 | 87th M · 17th M40 | |
| 107 | 17:24:35h | 5.00 | M45 | 88th M · 19th M45 | |
| 108 | Colomiers Running Club | 17:24:46h | 5.00 | M45 | 89th M · 20th M45 |
| 109 | Rrunning Castres | 17:29:24h | 4.97 | W40 | 20th F · 1st W40 |
| 110 | Raid'Apte | 17:29:58h | 4.97 | M45 | 90th M · 21st M45 |
| 111 | Run IN Niort | 17:35:50h | 4.94 | M55 | 91st M · 6th M55 |
| 112 | 17:44:30h | 4.90 | M40 | 92nd M · 18th M40 | |
| 113 | Crbp | 17:44:40h | 4.90 | M35 | 93rd M · 16th M35 |
| 114 | Absolu Pjap | 17:46:32h | 4.89 | M40 | 94th M · 19th M40 |
| 115 | Castets Team Trail | 17:48:20h | 4.89 | M45 | 95th M · 22nd M45 |
| 116 | Crbp 31 | 17:52:32h | 4.87 | M35 | 96th M · 17th M35 |
| 117 | 17:52:34h | 4.87 | M45 | 97th M · 23rd M45 | |
| 118 | 17:57:20h | 4.84 | M35 | 98th M · 18th M35 | |
| 119 | USA Foot | 17:57:49h | 4.84 | M40 | 99th M · 20th M40 |
| 120 | Pjap | 18:00:43h | 4.83 | M55 | 100th M · 7th M55 |
| 121 | Running Seysses / Run ... | 18:48:50h | 4.62 | M45 | 101st M · 24th M45 |
| 122 | Etenghien | 18:56:37h | 4.59 | M55 | 102nd M · 8th M55 |
| 123 | Canejan Athletisme | 19:17:50h | 4.51 | W45 | 21st F · 9th W45 |
| 124 | Tracks Athle | 19:28:17h | 4.47 | W23 | 22nd F · 8th W23 |
- 100Lauragais Athletisme Club83rd M · 4th M55Time17:01:04hPace5.11Cat.M55
- 10284th M · 19th M23Time17:08:08hPace5.08Cat.M23
- 102US Talence84th M · 5th M55Time17:08:08hPace5.08Cat.M55
- 104Trail du Mourtis86th M · 18th M45Time17:08:17hPace5.08Cat.M45
- 105Rrunning Castres19th F · 8th W45Time17:15:50hPace5.04Cat.W45
- 10687th M · 17th M40Time17:22:52hPace5.00Cat.M40
- 10788th M · 19th M45Time17:24:35hPace5.00Cat.M45
- 108Colomiers Running Club89th M · 20th M45Time17:24:46hPace5.00Cat.M45
- 109Rrunning Castres20th F · 1st W40Time17:29:24hPace4.97Cat.W40
- 110Raid'Apte90th M · 21st M45Time17:29:58hPace4.97Cat.M45
- 111Run IN Niort91st M · 6th M55Time17:35:50hPace4.94Cat.M55
- 11292nd M · 18th M40Time17:44:30hPace4.90Cat.M40
- 113Crbp93rd M · 16th M35Time17:44:40hPace4.90Cat.M35
- 114Absolu Pjap94th M · 19th M40Time17:46:32hPace4.89Cat.M40
- 115Castets Team Trail95th M · 22nd M45Time17:48:20hPace4.89Cat.M45
- 116Crbp 3196th M · 17th M35Time17:52:32hPace4.87Cat.M35
- 11797th M · 23rd M45Time17:52:34hPace4.87Cat.M45
- 11898th M · 18th M35Time17:57:20hPace4.84Cat.M35
- 119USA Foot99th M · 20th M40Time17:57:49hPace4.84Cat.M40
- 120Pjap100th M · 7th M55Time18:00:43hPace4.83Cat.M55
- 121Running Seysses / Run ...101st M · 24th M45Time18:48:50hPace4.62Cat.M45
- 122Etenghien102nd M · 8th M55Time18:56:37hPace4.59Cat.M55
- 123Canejan Athletisme21st F · 9th W45Time19:17:50hPace4.51Cat.W45
- 124Tracks Athle22nd F · 8th W23Time19:28:17hPace4.47Cat.W23
Showing ranks 101–124 of 124